Bellmore, Indiana
Current Conditions -  °F | °C
As of 10:35 AM on Friday 24 Oct 2014 (Local Time) from K4I7 Reporting Station
Overcast Overcast  
Wind Chill: 10°   Ceiling: 2200
Heat Index: 10°   Visibility: 7mi
Dew Point:   Wind: 0mph
Humidity: 87%   Direction: NA
Pressure: 30.11"   Gusts: NA
Location:  39.76°N, 87.11°W
Report Text: K4I7 241435Z AUTO 00000KT 7SM OVC022 10/08 A3011 RMK AO2
Loading
Personal Weather Stations






























Interactive Weather Map
Tropical Storm Tracking
New forecast layout! Learn more

10-Day Weather Forecast

Advertisements
Track Severe Weather on mobile